createdAt,value
2023-05-02T00:01:23.492Z,2.30
2023-05-02T00:03:50.141Z,1.90
2023-05-02T00:06:17.010Z,2.50
2023-05-02T00:08:43.973Z,10.10
2023-05-02T00:11:10.474Z,6.07
2023-05-02T00:13:39.228Z,9.30
2023-05-02T00:16:06.045Z,2.40
2023-05-02T00:18:32.591Z,2.10
2023-05-02T00:20:58.960Z,9.95
2023-05-02T00:23:27.897Z,7.30
2023-05-02T00:25:54.445Z,1.75
2023-05-02T00:28:20.843Z,1.73
2023-05-02T00:30:52.292Z,2.30
2023-05-02T00:33:21.200Z,3.87
2023-05-02T00:35:47.667Z,3.42
2023-05-02T00:38:14.090Z,1.83
2023-05-02T00:40:48.585Z,4.20
2023-05-02T00:43:15.750Z,2.85
2023-05-02T00:45:43.676Z,6.18
2023-05-02T00:48:11.164Z,2.30
2023-05-02T00:50:40.470Z,7.00
2023-05-02T00:53:08.352Z,2.80
2023-05-02T00:55:35.741Z,2.15
2023-05-02T00:58:05.330Z,2.72
2023-05-02T01:00:43.419Z,2.85
2023-05-02T01:03:24.090Z,3.42
2023-05-02T01:06:03.780Z,1.70
2023-05-02T01:08:40.193Z,1.40
2023-05-02T01:11:23.358Z,2.28
2023-05-02T01:13:53.074Z,1.73
2023-05-02T01:16:21.439Z,2.17
2023-05-02T01:18:49.862Z,1.65
2023-05-02T01:21:16.270Z,2.60
2023-05-02T01:24:05.954Z,2.88
2023-05-02T01:27:05.161Z,3.22
2023-05-02T01:29:33.171Z,4.25
2023-05-02T01:32:02.998Z,3.28
2023-05-02T01:34:34.814Z,2.60
2023-05-02T01:37:05.547Z,3.70
2023-05-02T01:39:32.777Z,4.40
2023-05-02T01:42:02.517Z,3.75
2023-05-02T01:44:30.272Z,6.22
2023-05-02T01:46:57.998Z,3.35
2023-05-02T01:49:26.832Z,5.32
2023-05-02T01:51:53.499Z,8.80
2023-05-02T01:54:23.121Z,6.35
2023-05-02T01:56:50.229Z,5.22
2023-05-02T01:59:19.727Z,4.18
2023-05-02T02:01:47.103Z,4.95
2023-05-02T02:04:15.896Z,3.42
2023-05-02T02:06:46.298Z,3.65
2023-05-02T02:09:15.577Z,7.25
2023-05-02T02:11:57.451Z,3.60
2023-05-02T02:14:35.434Z,3.90
2023-05-02T02:17:06.189Z,3.58
2023-05-02T02:19:33.369Z,4.07
2023-05-02T02:22:01.014Z,3.20
2023-05-02T02:24:30.518Z,3.47
2023-05-02T02:26:57.484Z,2.28
2023-05-02T02:29:23.888Z,3.05
2023-05-02T02:31:50.792Z,5.38
2023-05-02T02:34:17.419Z,4.43
2023-05-02T02:36:49.734Z,2.95
2023-05-02T02:39:40.687Z,2.17
2023-05-02T02:42:14.412Z,2.45
2023-05-02T02:44:53.683Z,4.30
2023-05-02T02:47:27.421Z,3.00
2023-05-02T02:50:20.118Z,2.97
2023-05-02T02:52:55.899Z,3.35
2023-05-02T02:55:40.363Z,3.33
2023-05-02T02:58:25.356Z,4.32
2023-05-02T03:00:53.125Z,3.72
2023-05-02T03:03:28.935Z,3.25
2023-05-02T03:05:59.396Z,3.70
2023-05-02T03:08:26.025Z,5.78
2023-05-02T03:10:54.544Z,4.50
2023-05-02T03:13:21.010Z,3.88
2023-05-02T03:15:50.231Z,5.18
2023-05-02T03:18:17.578Z,3.70
2023-05-02T03:20:44.193Z,3.28
2023-05-02T03:23:10.735Z,2.50
2023-05-02T03:25:37.134Z,4.10
2023-05-02T03:28:06.343Z,5.28
2023-05-02T03:30:40.715Z,4.68
2023-05-02T03:33:08.827Z,4.82
2023-05-02T03:35:35.554Z,5.50
2023-05-02T03:38:01.930Z,5.28
2023-05-02T03:40:28.668Z,4.05
2023-05-02T03:42:55.123Z,6.90
2023-05-02T03:45:21.549Z,6.13
2023-05-02T03:47:47.978Z,6.10
2023-05-02T03:50:14.542Z,5.55
2023-05-02T03:52:40.883Z,5.18
2023-05-02T03:55:07.856Z,6.00
2023-05-02T03:57:34.433Z,4.05
2023-05-02T04:00:01.076Z,7.88
2023-05-02T04:02:28.104Z,3.08
2023-05-02T04:04:54.603Z,4.38
2023-05-02T04:07:21.162Z,6.88
2023-05-02T04:09:52.341Z,7.32
2023-05-02T04:12:18.818Z,2.63
2023-05-02T04:14:45.301Z,2.40
2023-05-02T04:17:11.913Z,5.13
2023-05-02T04:19:40.833Z,5.68
2023-05-02T04:22:07.217Z,6.15
2023-05-02T04:24:33.713Z,6.35
2023-05-02T04:27:00.130Z,6.28
2023-05-02T04:29:26.747Z,8.13
2023-05-02T04:31:53.687Z,5.60
2023-05-02T04:34:20.636Z,7.05
2023-05-02T04:36:47.331Z,6.75
2023-05-02T04:39:14.023Z,6.03
2023-05-02T04:41:40.733Z,6.28
2023-05-02T04:44:07.072Z,6.72
2023-05-02T04:46:33.989Z,3.50
2023-05-02T04:49:00.381Z,6.35
2023-05-02T04:51:27.965Z,3.70
2023-05-02T04:53:54.514Z,3.88
2023-05-02T04:56:21.851Z,3.22
2023-05-02T04:58:48.347Z,5.30
2023-05-02T05:01:17.145Z,5.55
2023-05-02T05:03:46.346Z,4.10
2023-05-02T05:06:13.207Z,5.38
2023-05-02T05:08:40.068Z,10.45
2023-05-02T05:11:06.577Z,4.53
2023-05-02T05:13:33.001Z,6.15
2023-05-02T05:15:59.654Z,4.53
2023-05-02T05:18:26.131Z,9.48
2023-05-02T05:20:54.947Z,4.57
2023-05-02T05:23:21.516Z,4.35
2023-05-02T05:25:50.311Z,4.60
2023-05-02T05:28:18.449Z,5.78
2023-05-02T05:30:44.963Z,9.15
2023-05-02T05:33:11.665Z,7.38
2023-05-02T05:35:38.384Z,7.50
2023-05-02T05:38:04.849Z,7.78
2023-05-02T05:40:31.268Z,8.07
2023-05-02T05:42:59.943Z,17.67
2023-05-02T05:45:26.749Z,22.67
2023-05-02T05:47:56.788Z,16.77
2023-05-02T05:50:23.192Z,13.05
2023-05-02T05:52:50.093Z,15.95
2023-05-02T05:55:16.788Z,20.40
2023-05-02T05:57:43.250Z,26.38
2023-05-02T06:00:11.043Z,25.70
2023-05-02T06:02:37.589Z,22.85
2023-05-02T06:05:04.286Z,25.75
2023-05-02T06:07:33.546Z,26.45
2023-05-02T06:10:00.216Z,25.13
2023-05-02T06:12:26.920Z,20.52
2023-05-02T06:14:53.903Z,33.60
2023-05-02T06:17:20.779Z,27.42
2023-05-02T06:19:47.300Z,29.83
2023-05-02T06:22:14.158Z,27.00
2023-05-02T06:24:40.525Z,23.90
2023-05-02T06:27:06.869Z,29.60
2023-05-02T06:29:35.516Z,28.13
2023-05-02T06:32:02.075Z,25.27
2023-05-02T06:34:28.564Z,28.52
2023-05-02T06:36:58.128Z,28.13
2023-05-02T06:39:24.890Z,27.17
2023-05-02T06:41:51.447Z,29.88
2023-05-02T06:44:20.692Z,33.83
2023-05-02T06:46:47.185Z,32.22
2023-05-02T06:49:15.794Z,34.30
2023-05-02T06:51:42.454Z,33.42
2023-05-02T06:54:09.173Z,36.70
2023-05-02T06:56:37.216Z,30.63
2023-05-02T06:59:04.109Z,29.90
2023-05-02T07:01:30.693Z,34.40
2023-05-02T07:03:57.154Z,39.72
2023-05-02T07:06:24.437Z,33.80
2023-05-02T07:08:50.922Z,40.95
2023-05-02T07:11:23.538Z,43.08
2023-05-02T07:13:52.492Z,43.90
2023-05-02T07:16:18.992Z,38.47
2023-05-02T07:18:50.775Z,40.20
2023-05-02T07:21:19.085Z,40.28
2023-05-02T07:23:45.694Z,31.88
2023-05-02T07:26:12.184Z,41.08
2023-05-02T07:28:38.848Z,39.83
2023-05-02T07:31:05.256Z,38.35
2023-05-02T07:33:35.114Z,41.58
2023-05-02T07:36:02.137Z,42.08
2023-05-02T07:38:28.526Z,45.22
2023-05-02T07:40:58.848Z,41.40
2023-05-02T07:43:25.468Z,41.55
2023-05-02T07:45:51.987Z,41.30
2023-05-02T07:48:18.515Z,39.63
2023-05-02T07:50:45.274Z,40.92
2023-05-02T07:53:14.293Z,46.20
2023-05-02T07:55:40.708Z,41.05
2023-05-02T07:58:09.616Z,40.78
2023-05-02T08:00:36.033Z,43.55
2023-05-02T08:03:02.669Z,39.70
2023-05-02T08:05:29.217Z,41.92
2023-05-02T08:07:55.662Z,49.05
2023-05-02T08:10:23.301Z,39.50
2023-05-02T08:12:50.852Z,40.88
2023-05-02T08:15:17.186Z,37.63
2023-05-02T08:17:43.837Z,39.38
2023-05-02T08:20:10.641Z,39.63
2023-05-02T08:22:39.335Z,41.00
2023-05-02T08:25:06.483Z,34.45
2023-05-02T08:27:35.279Z,42.75
2023-05-02T08:30:01.846Z,43.97
2023-05-02T08:32:30.814Z,34.30
2023-05-02T08:34:59.435Z,33.33
2023-05-02T08:37:28.085Z,35.78
2023-05-02T08:39:54.411Z,41.03
2023-05-02T08:42:21.665Z,34.55
2023-05-02T08:44:49.176Z,41.25
2023-05-02T08:47:16.304Z,32.90
2023-05-02T08:49:43.536Z,31.83
2023-05-02T08:52:12.118Z,30.20
2023-05-02T08:54:39.009Z,37.40
2023-05-02T08:57:05.938Z,33.00
2023-05-02T08:59:32.423Z,32.15
2023-05-02T09:02:17.832Z,34.42
2023-05-02T09:04:49.629Z,36.65
2023-05-02T09:09:42.525Z,36.63
2023-05-02T09:12:08.922Z,31.02
2023-05-02T09:14:35.266Z,33.13
2023-05-02T09:17:02.488Z,34.35
2023-05-02T09:19:31.321Z,39.58
2023-05-02T09:22:01.421Z,30.42
2023-05-02T09:24:28.293Z,29.17
2023-05-02T09:27:03.473Z,34.22
2023-05-02T09:29:36.034Z,37.47
2023-05-02T09:32:03.991Z,35.55
2023-05-02T09:34:33.749Z,31.38
2023-05-02T09:37:00.232Z,31.08
2023-05-02T09:39:31.269Z,33.78
2023-05-02T09:42:00.006Z,24.53
2023-05-02T09:44:36.092Z,31.98
2023-05-02T09:47:07.488Z,20.77
2023-05-02T09:49:45.054Z,26.98
2023-05-02T09:52:17.379Z,27.27
2023-05-02T09:54:47.176Z,26.73
2023-05-02T09:57:14.146Z,21.50
2023-05-02T09:59:42.951Z,19.83
2023-05-02T10:02:11.489Z,22.15
2023-05-02T10:04:41.872Z,27.65
2023-05-02T10:07:10.325Z,23.77
2023-05-02T10:09:41.264Z,21.70
2023-05-02T10:12:08.363Z,21.42
2023-05-02T10:14:44.248Z,22.70
2023-05-02T10:17:31.005Z,22.60
2023-05-02T10:20:01.461Z,26.52
2023-05-02T10:22:28.144Z,26.67
2023-05-02T10:24:55.065Z,30.88
2023-05-02T10:27:22.050Z,31.17
2023-05-02T10:29:51.129Z,28.45
2023-05-02T10:32:18.384Z,27.17
2023-05-02T10:34:46.415Z,26.17
2023-05-02T10:37:15.862Z,30.88
2023-05-02T10:39:42.263Z,33.03
2023-05-02T10:42:09.528Z,33.35
2023-05-02T10:44:37.593Z,35.92
2023-05-02T10:47:24.057Z,27.80
2023-05-02T10:49:52.230Z,26.42
2023-05-02T10:52:38.941Z,28.88
2023-05-02T10:55:24.174Z,30.00
2023-05-02T10:58:00.139Z,30.45
2023-05-02T11:00:32.491Z,26.45
2023-05-02T11:02:59.835Z,27.45
2023-05-02T11:05:27.612Z,29.20
2023-05-02T11:08:15.810Z,22.60
2023-05-02T11:10:42.786Z,23.40
2023-05-02T11:13:09.397Z,22.67
2023-05-02T11:15:44.884Z,22.48
2023-05-02T11:18:12.798Z,21.10
2023-05-02T11:20:44.176Z,22.65
2023-05-02T11:23:16.877Z,22.27
2023-05-02T11:25:50.724Z,19.67
2023-05-02T11:28:49.447Z,12.98
2023-05-02T11:31:27.798Z,17.55
2023-05-02T11:34:02.090Z,13.07
2023-05-02T11:36:35.575Z,15.27
2023-05-02T11:39:05.391Z,10.45
2023-05-02T11:41:41.402Z,13.55
2023-05-02T11:44:08.026Z,11.80
2023-05-02T11:46:38.376Z,16.70
2023-05-02T11:49:07.003Z,11.80
2023-05-02T11:51:35.592Z,15.55
2023-05-02T11:54:02.540Z,16.00
2023-05-02T11:56:29.193Z,13.00
2023-05-02T11:59:05.034Z,12.13
2023-05-02T12:01:31.613Z,11.40
2023-05-02T12:04:08.573Z,10.48
2023-05-02T12:06:35.560Z,26.00
2023-05-02T12:09:10.223Z,9.32
2023-05-02T12:11:38.200Z,13.52
2023-05-02T12:14:05.901Z,12.95
2023-05-02T12:16:35.161Z,10.90
2023-05-02T12:19:02.053Z,8.73
2023-05-02T12:21:34.943Z,10.75
2023-05-02T12:24:02.389Z,7.15
2023-05-02T12:26:33.585Z,6.85
2023-05-02T12:29:01.982Z,6.45
2023-05-02T12:31:31.367Z,7.03
2023-05-02T12:34:01.311Z,7.97
2023-05-02T12:36:28.671Z,8.45
2023-05-02T12:38:59.265Z,7.13
2023-05-02T12:41:31.400Z,14.17
2023-05-02T12:44:03.375Z,8.18
2023-05-02T12:46:31.280Z,6.25
2023-05-02T12:49:06.146Z,9.02
2023-05-02T12:51:32.984Z,5.00
2023-05-02T12:53:59.433Z,7.47
2023-05-02T12:56:31.943Z,9.23
2023-05-02T12:59:03.914Z,6.45
2023-05-02T13:01:34.476Z,7.63
2023-05-02T13:04:03.794Z,7.80
2023-05-02T13:06:31.251Z,7.18
2023-05-02T13:08:58.110Z,7.57
2023-05-02T13:11:24.532Z,5.18
2023-05-02T13:13:50.894Z,5.57
2023-05-02T13:16:17.411Z,8.23
2023-05-02T13:18:48.009Z,8.57
2023-05-02T13:21:14.675Z,7.20
2023-05-02T13:23:41.515Z,5.40
2023-05-02T13:26:07.995Z,5.53
2023-05-02T13:28:35.719Z,4.95
2023-05-02T13:31:02.209Z,4.90
2023-05-02T13:33:28.673Z,6.53
2023-05-02T13:35:55.034Z,5.60
2023-05-02T13:38:21.541Z,8.95
2023-05-02T13:40:48.130Z,7.07
2023-05-02T13:43:15.005Z,4.63
2023-05-02T13:45:41.522Z,5.97
2023-05-02T13:48:07.931Z,6.75
2023-05-02T13:50:39.085Z,7.50
2023-05-02T13:53:05.498Z,4.30
2023-05-02T13:55:31.901Z,4.72
2023-05-02T13:58:01.521Z,4.28
2023-05-02T14:00:29.685Z,4.03
2023-05-02T14:02:56.170Z,4.65
2023-05-02T14:05:22.686Z,3.20
2023-05-02T14:07:49.940Z,5.38
2023-05-02T14:10:16.577Z,4.07
2023-05-02T14:12:42.944Z,5.35
2023-05-02T14:15:09.692Z,7.60
2023-05-02T14:17:36.149Z,7.00
2023-05-02T14:20:03.064Z,5.25
2023-05-02T14:22:29.780Z,14.45
2023-05-02T14:24:56.218Z,9.65
2023-05-02T14:27:23.009Z,5.75
2023-05-02T14:29:49.797Z,3.97
2023-05-02T14:32:16.253Z,6.82
2023-05-02T14:34:42.771Z,5.43
2023-05-02T14:37:09.513Z,9.75
2023-05-02T14:39:36.657Z,4.45
2023-05-02T14:42:05.706Z,3.92
2023-05-02T14:44:32.373Z,5.50
2023-05-02T14:46:58.832Z,7.18
2023-05-02T14:49:27.547Z,7.50
2023-05-02T14:51:55.110Z,5.60
2023-05-02T14:54:27.049Z,4.50
2023-05-02T14:56:53.870Z,7.00
2023-05-02T14:59:23.137Z,5.43
2023-05-02T15:01:51.579Z,4.75
2023-05-02T15:04:19.707Z,5.72
2023-05-02T15:06:48.251Z,9.75
2023-05-02T15:09:16.073Z,6.40
2023-05-02T15:11:42.611Z,6.78
2023-05-02T15:14:09.602Z,4.18
2023-05-02T15:16:39.276Z,4.10
2023-05-02T15:19:08.886Z,6.93
2023-05-02T15:21:35.370Z,4.47
2023-05-02T15:24:02.679Z,9.07
2023-05-02T15:26:29.812Z,7.75
2023-05-02T15:28:56.311Z,7.53
2023-05-02T15:31:22.811Z,4.63
2023-05-02T15:33:49.399Z,4.35
2023-05-02T15:36:16.152Z,4.10
2023-05-02T15:38:42.978Z,4.05
2023-05-02T15:41:13.420Z,3.70
2023-05-02T15:43:40.001Z,2.88
2023-05-02T15:46:06.448Z,4.20
2023-05-02T15:48:33.586Z,4.65
2023-05-02T15:51:00.484Z,1.98
2023-05-02T15:53:27.358Z,2.85
2023-05-02T15:55:56.466Z,1.58
2023-05-02T15:58:23.063Z,3.15
2023-05-02T16:00:49.513Z,2.95
2023-05-02T16:03:16.370Z,1.70
2023-05-02T16:05:46.397Z,1.90
2023-05-02T16:08:14.975Z,2.72
2023-05-02T16:10:43.345Z,3.67
2023-05-02T16:13:09.991Z,2.35
2023-05-02T16:15:38.901Z,6.90
2023-05-02T16:18:05.573Z,2.17
2023-05-02T16:20:36.653Z,4.20
2023-05-02T16:23:04.679Z,2.93
2023-05-02T16:25:31.568Z,3.33
2023-05-02T16:28:00.981Z,3.08
2023-05-02T16:30:28.561Z,3.13
2023-05-02T16:32:55.401Z,3.60
2023-05-02T16:35:21.910Z,2.83
2023-05-02T16:37:49.009Z,3.10
2023-05-02T16:40:15.649Z,7.68
2023-05-02T16:42:42.968Z,5.78
2023-05-02T16:45:09.587Z,3.00
2023-05-02T16:47:36.663Z,2.63
2023-05-02T16:50:03.587Z,3.38
2023-05-02T16:52:30.308Z,2.53
2023-05-02T16:54:56.844Z,3.40
2023-05-02T16:57:23.445Z,5.18
2023-05-02T16:59:55.381Z,7.35
2023-05-02T17:04:51.824Z,3.97
2023-05-02T17:07:20.450Z,5.00
2023-05-02T17:09:46.794Z,4.78
2023-05-02T17:12:15.405Z,8.70
2023-05-02T17:14:42.583Z,2.85
2023-05-02T17:17:10.131Z,4.60
2023-05-02T17:19:36.769Z,8.98
2023-05-02T17:22:05.035Z,3.42
2023-05-02T17:24:32.115Z,6.07
2023-05-02T17:26:58.861Z,7.03
2023-05-02T17:29:25.697Z,4.07
2023-05-02T17:31:52.135Z,3.47
2023-05-02T17:34:18.574Z,5.15
2023-05-02T17:36:46.295Z,3.47
2023-05-02T17:39:13.414Z,8.38
2023-05-02T17:41:39.925Z,4.65
2023-05-02T17:44:06.668Z,6.38
2023-05-02T17:46:33.392Z,5.72
2023-05-02T17:49:00.939Z,7.60
2023-05-02T17:51:27.655Z,7.13
2023-05-02T17:53:54.049Z,5.70
2023-05-02T17:56:23.134Z,5.07
2023-05-02T17:58:49.496Z,4.53
2023-05-02T18:01:17.355Z,6.32
2023-05-02T18:03:44.554Z,7.72
2023-05-02T18:06:18.676Z,6.03
2023-05-02T18:08:46.038Z,11.00
2023-05-02T18:11:17.350Z,3.80
2023-05-02T18:13:49.664Z,5.40
2023-05-02T18:16:16.388Z,7.65
2023-05-02T18:18:42.767Z,4.68
2023-05-02T18:21:12.034Z,4.43
2023-05-02T18:23:40.045Z,2.88
2023-05-02T18:26:12.771Z,4.40
2023-05-02T18:28:40.132Z,9.15
2023-05-02T18:31:15.323Z,3.95
2023-05-02T18:33:42.004Z,4.35
2023-05-02T18:36:08.367Z,8.88
2023-05-02T18:38:36.737Z,7.97
2023-05-02T18:41:03.992Z,4.88
2023-05-02T18:43:32.451Z,3.65
2023-05-02T18:45:59.007Z,4.35
2023-05-02T18:48:25.461Z,7.38
2023-05-02T18:50:56.424Z,2.83
2023-05-02T18:53:26.587Z,4.88
2023-05-02T18:55:56.496Z,10.43
2023-05-02T18:58:23.037Z,3.38
2023-05-02T19:00:51.996Z,5.03
2023-05-02T19:03:18.911Z,3.13
2023-05-02T19:05:45.696Z,7.43
2023-05-02T19:08:12.201Z,5.65
2023-05-02T19:10:38.586Z,3.28
2023-05-02T19:13:04.940Z,8.35
2023-05-02T19:15:33.424Z,3.70
2023-05-02T19:18:00.538Z,2.78
2023-05-02T19:20:28.416Z,4.22
2023-05-02T19:23:07.247Z,6.07
2023-05-02T19:25:42.032Z,2.40
2023-05-02T19:28:08.569Z,5.15
2023-05-02T19:30:35.027Z,7.10
2023-05-02T19:33:01.675Z,5.43
2023-05-02T19:35:34.093Z,2.33
2023-05-02T19:38:01.168Z,8.45
2023-05-02T19:40:29.749Z,5.28
2023-05-02T19:42:56.387Z,5.38
2023-05-02T19:45:24.977Z,3.35
2023-05-02T19:47:51.425Z,5.80
2023-05-02T19:50:17.850Z,5.97
2023-05-02T19:52:46.677Z,5.65
2023-05-02T19:55:13.376Z,3.60
2023-05-02T19:57:44.927Z,7.57
2023-05-02T20:00:12.801Z,9.95
2023-05-02T20:02:39.603Z,4.50
2023-05-02T20:05:06.830Z,6.45
2023-05-02T20:07:33.521Z,4.88
2023-05-02T20:10:00.088Z,2.65
2023-05-02T20:12:26.797Z,1.70
2023-05-02T20:14:53.131Z,2.88
2023-05-02T20:17:19.464Z,3.88
2023-05-02T20:19:48.153Z,3.40
2023-05-02T20:22:14.662Z,3.22
2023-05-02T20:24:41.013Z,3.33
2023-05-02T20:27:07.666Z,2.42
2023-05-02T20:29:34.024Z,5.60
2023-05-02T20:32:00.533Z,7.60
2023-05-02T20:34:27.017Z,6.25
2023-05-02T20:36:53.387Z,5.85
2023-05-02T20:39:22.922Z,3.17
2023-05-02T20:41:51.857Z,2.40
2023-05-02T20:44:18.586Z,5.03
2023-05-02T20:46:44.920Z,3.75
2023-05-02T20:49:13.979Z,6.75
2023-05-02T20:51:40.382Z,8.73
2023-05-02T20:54:06.887Z,4.97
2023-05-02T20:56:33.429Z,5.93
2023-05-02T20:59:00.054Z,3.95
2023-05-02T21:01:26.914Z,5.18
2023-05-02T21:03:53.824Z,4.38
2023-05-02T21:06:21.045Z,4.50
2023-05-02T21:08:47.494Z,4.95
2023-05-02T21:11:16.854Z,4.32
2023-05-02T21:13:43.796Z,5.20
2023-05-02T21:16:20.077Z,6.53
2023-05-02T21:18:49.470Z,5.22
2023-05-02T21:21:18.093Z,16.25
2023-05-02T21:23:44.679Z,3.03
2023-05-02T21:26:11.117Z,4.18
2023-05-02T21:28:38.576Z,3.63
2023-05-02T21:31:06.970Z,5.38
2023-05-02T21:33:33.565Z,4.90
2023-05-02T21:35:59.897Z,4.03
2023-05-02T21:38:26.898Z,3.58
2023-05-02T21:40:53.477Z,10.13
2023-05-02T21:43:20.747Z,5.78
2023-05-02T21:45:49.181Z,5.50
2023-05-02T21:48:17.076Z,4.25
2023-05-02T21:50:44.302Z,5.95
2023-05-02T21:53:11.261Z,7.18
2023-05-02T21:55:39.477Z,5.38
2023-05-02T21:58:06.842Z,4.30
2023-05-02T22:00:33.561Z,3.90
2023-05-02T22:03:07.776Z,4.95
2023-05-02T22:05:45.728Z,4.40
2023-05-02T22:08:13.318Z,12.80
2023-05-02T22:10:43.593Z,5.43
2023-05-02T22:13:14.831Z,6.22
2023-05-02T22:15:48.024Z,6.13
2023-05-02T22:18:15.654Z,12.02
2023-05-02T22:20:45.524Z,5.57
2023-05-02T22:23:12.556Z,8.50
2023-05-02T22:25:41.416Z,4.45
2023-05-02T22:28:11.308Z,6.82
2023-05-02T22:30:42.956Z,15.45
2023-05-02T22:33:09.557Z,8.25
2023-05-02T22:35:37.738Z,6.22
2023-05-02T22:38:04.914Z,5.60
2023-05-02T22:40:31.928Z,3.58
2023-05-02T22:43:01.239Z,4.82
2023-05-02T22:45:35.303Z,7.45
2023-05-02T22:48:01.856Z,7.20
2023-05-02T22:50:30.004Z,5.75
2023-05-02T22:52:59.835Z,6.22
2023-05-02T22:55:26.365Z,7.50
2023-05-02T22:57:52.920Z,6.20
2023-05-02T23:00:23.515Z,6.30
2023-05-02T23:02:50.101Z,8.38
2023-05-02T23:05:16.673Z,13.57
2023-05-02T23:07:43.648Z,7.00
2023-05-02T23:10:12.404Z,6.47
2023-05-02T23:12:39.087Z,8.98
2023-05-02T23:15:06.981Z,7.53
2023-05-02T23:17:33.506Z,9.02
2023-05-02T23:20:00.213Z,6.93
2023-05-02T23:22:26.896Z,6.75
2023-05-02T23:24:53.312Z,7.40
2023-05-02T23:27:19.845Z,13.45
2023-05-02T23:29:48.803Z,9.45
2023-05-02T23:32:16.195Z,6.47
2023-05-02T23:34:45.035Z,8.38
2023-05-02T23:37:14.595Z,13.07
2023-05-02T23:39:41.094Z,8.52
2023-05-02T23:42:07.688Z,4.85
2023-05-02T23:44:34.079Z,11.27
2023-05-02T23:47:00.832Z,18.45
2023-05-02T23:49:27.431Z,13.13
2023-05-02T23:51:53.935Z,11.13
2023-05-02T23:54:20.463Z,7.35
2023-05-02T23:56:47.354Z,5.63
2023-05-02T23:59:13.790Z,11.02
